createdAt,value
2018-04-02T00:00:33.282Z,39.13
2018-04-02T00:03:02.393Z,39.17
2018-04-02T00:05:30.586Z,39.77
2018-04-02T00:07:58.787Z,42.07
2018-04-02T00:10:26.200Z,39.73
2018-04-02T00:12:53.631Z,37.27
2018-04-02T00:15:21.049Z,40.30
2018-04-02T00:17:49.242Z,41.05
2018-04-02T00:20:16.660Z,40.97
2018-04-02T00:22:44.086Z,41.93
2018-04-02T00:25:12.296Z,41.53
2018-04-02T00:27:39.710Z,43.35
2018-04-02T00:30:07.152Z,42.30
2018-04-02T00:32:34.564Z,44.90
2018-04-02T00:35:03.648Z,42.85
2018-04-02T00:37:31.063Z,43.17
2018-04-02T00:39:59.238Z,43.43
2018-04-02T00:42:26.657Z,43.17
2018-04-02T00:44:54.075Z,43.83
2018-04-02T00:47:22.278Z,45.07
2018-04-02T00:49:50.458Z,46.77
2018-04-02T00:52:18.643Z,47.40
2018-04-02T00:54:46.832Z,49.05
2018-04-02T00:57:15.020Z,50.00
2018-04-02T00:59:43.205Z,53.83
2018-04-02T01:02:10.652Z,54.40
2018-04-02T01:04:38.067Z,54.83
2018-04-02T01:07:05.487Z,56.23
2018-04-02T01:09:33.998Z,55.20
2018-04-02T01:12:03.117Z,57.43
2018-04-02T01:14:31.331Z,55.60
2018-04-02T01:16:58.747Z,59.63
2018-04-02T01:19:26.175Z,60.30
2018-04-02T01:21:53.606Z,59.00
2018-04-02T01:24:21.911Z,63.40
2018-04-02T01:26:50.078Z,64.10
2018-04-02T01:29:17.508Z,66.55
2018-04-02T01:31:44.940Z,66.00
2018-04-02T01:34:12.364Z,65.50
2018-04-02T01:36:39.777Z,66.27
2018-04-02T01:39:07.215Z,63.37
2018-04-02T01:41:35.388Z,66.95
2018-04-02T01:44:04.402Z,67.97
2018-04-02T01:46:33.508Z,68.63
2018-04-02T01:49:01.714Z,68.13
2018-04-02T01:51:29.162Z,69.67
2018-04-02T01:53:57.347Z,71.87
2018-04-02T01:56:25.559Z,69.85
2018-04-02T01:58:53.738Z,66.83
2018-04-02T02:01:21.166Z,68.50
2018-04-02T02:03:48.570Z,69.83
2018-04-02T02:06:16.007Z,68.00
2018-04-02T02:08:43.451Z,66.30
2018-04-02T02:11:11.094Z,67.97
2018-04-02T02:13:38.506Z,68.27
2018-04-02T02:16:05.929Z,70.60
2018-04-02T02:18:34.821Z,68.87
2018-04-02T02:21:02.260Z,65.57
2018-04-02T02:23:29.681Z,67.60
2018-04-02T02:25:57.122Z,67.50
2018-04-02T02:28:25.318Z,67.20
2018-04-02T02:30:52.746Z,62.67
2018-04-02T02:33:20.195Z,63.55
2018-04-02T02:35:47.664Z,63.17
2018-04-02T02:38:15.093Z,62.17
2018-04-02T02:40:42.515Z,60.57
2018-04-02T02:43:09.958Z,59.10
2018-04-02T02:45:37.386Z,58.45
2018-04-02T02:48:04.825Z,55.50
2018-04-02T02:50:32.250Z,57.27
2018-04-02T02:52:59.680Z,55.90
2018-04-02T02:55:27.871Z,54.83
2018-04-02T02:57:56.075Z,52.40
2018-04-02T03:00:24.271Z,52.63
2018-04-02T03:02:51.711Z,52.17
2018-04-02T03:05:19.112Z,51.97
2018-04-02T03:07:46.542Z,50.50
2018-04-02T03:10:14.742Z,51.17
2018-04-02T03:12:42.183Z,48.10
2018-04-02T03:15:09.607Z,48.20
2018-04-02T03:17:37.031Z,47.07
2018-04-02T03:20:04.875Z,49.30
2018-04-02T03:22:32.307Z,50.10
2018-04-02T03:24:59.774Z,51.53
2018-04-02T03:27:27.942Z,49.43
2018-04-02T03:29:56.122Z,49.20
2018-04-02T03:32:24.318Z,51.27
2018-04-02T03:34:52.504Z,51.07
2018-04-02T03:37:20.690Z,49.90
2018-04-02T03:39:48.139Z,53.13
2018-04-02T03:42:15.592Z,47.93
2018-04-02T03:44:43.031Z,48.77
2018-04-02T03:47:10.450Z,49.63
2018-04-02T03:49:38.629Z,49.33
2018-04-02T03:52:06.051Z,50.17
2018-04-02T03:54:33.469Z,50.47
2018-04-02T03:57:01.650Z,50.70
2018-04-02T03:59:29.070Z,50.60
2018-04-02T04:01:56.510Z,51.20
2018-04-02T04:04:24.695Z,52.17
2018-04-02T04:06:52.883Z,53.57
2018-04-02T04:09:20.356Z,54.05
2018-04-02T04:11:47.773Z,54.70
2018-04-02T04:14:15.198Z,53.53
2018-04-02T04:16:42.654Z,52.97
2018-04-02T04:19:10.842Z,52.20
2018-04-02T04:21:38.290Z,51.47
2018-04-02T04:24:05.842Z,51.03
2018-04-02T04:26:33.254Z,51.87
2018-04-02T04:29:00.685Z,51.03
2018-04-02T04:31:29.610Z,48.90
2018-04-02T04:33:57.807Z,52.60
2018-04-02T04:36:25.226Z,51.20
2018-04-02T04:38:52.659Z,49.27
2018-04-02T04:41:20.078Z,47.72
2018-04-02T04:43:47.504Z,47.10
2018-04-02T04:46:14.941Z,44.03
2018-04-02T04:48:43.157Z,46.57
2018-04-02T04:51:10.594Z,45.70
2018-04-02T04:53:38.772Z,46.10
2018-04-02T04:56:06.966Z,44.10
2018-04-02T04:58:36.070Z,45.43
2018-04-02T05:01:04.263Z,44.53
2018-04-02T05:03:32.478Z,43.40
2018-04-02T05:06:00.203Z,45.33
2018-04-02T05:08:27.597Z,43.53
2018-04-02T05:10:55.776Z,45.50
2018-04-02T05:13:24.001Z,42.50
2018-04-02T05:15:51.430Z,45.00
2018-04-02T05:18:19.630Z,44.47
2018-04-02T05:20:47.057Z,44.70
2018-04-02T05:23:14.463Z,46.55
2018-04-02T05:25:41.902Z,45.23
2018-04-02T05:28:09.434Z,46.40
2018-04-02T05:30:36.840Z,46.63
2018-04-02T05:33:04.262Z,48.40
2018-04-02T05:35:31.696Z,48.65
2018-04-02T05:37:59.899Z,47.93
2018-04-02T05:40:27.338Z,47.60
2018-04-02T05:42:55.556Z,47.15
2018-04-02T05:45:22.982Z,48.80
2018-04-02T05:47:50.399Z,47.60
2018-04-02T05:50:17.842Z,47.28
2018-04-02T05:52:45.264Z,47.47
2018-04-02T05:55:12.687Z,46.73
2018-04-02T05:57:40.144Z,45.67
2018-04-02T06:00:07.965Z,44.40
2018-04-02T06:02:35.412Z,46.77
2018-04-02T06:05:02.822Z,47.50
2018-04-02T06:07:30.227Z,48.20
2018-04-02T06:09:58.417Z,49.80
2018-04-02T06:12:26.620Z,49.43
2018-04-02T06:14:54.051Z,50.20
2018-04-02T06:17:21.501Z,51.23
2018-04-02T06:19:48.945Z,51.60
2018-04-02T06:22:16.394Z,51.90
2018-04-02T06:24:43.851Z,51.63
2018-04-02T06:27:12.034Z,51.20
2018-04-02T06:29:40.220Z,52.17
2018-04-02T06:32:08.403Z,49.97
2018-04-02T06:34:37.542Z,50.17
2018-04-02T06:37:04.941Z,50.40
2018-04-02T06:39:32.350Z,43.50
2018-04-02T06:41:59.778Z,43.30
2018-04-02T06:44:27.211Z,41.23
2018-04-02T06:46:54.649Z,44.70
2018-04-02T06:49:22.828Z,43.40
2018-04-02T06:51:51.046Z,44.20
2018-04-02T06:54:19.208Z,46.10
2018-04-02T06:56:46.638Z,46.13
2018-04-02T06:59:14.058Z,48.63
2018-04-02T07:01:41.502Z,49.63
2018-04-02T07:04:09.700Z,51.50
2018-04-02T07:06:38.605Z,53.22
2018-04-02T07:09:07.709Z,54.10
2018-04-02T07:11:35.897Z,55.63
2018-04-02T07:14:04.082Z,53.60
2018-04-02T07:16:32.280Z,53.20
2018-04-02T07:18:59.835Z,55.10
2018-04-02T07:21:27.280Z,53.97
2018-04-02T07:23:54.743Z,55.10
2018-04-02T07:26:22.156Z,55.67
2018-04-02T07:28:49.576Z,57.83
2018-04-02T07:31:16.994Z,55.43
2018-04-02T07:33:44.447Z,55.67
2018-04-02T07:36:11.884Z,56.53
2018-04-02T07:38:39.306Z,54.40
2018-04-02T07:41:06.730Z,54.40
2018-04-02T07:43:34.155Z,56.50
2018-04-02T07:46:02.388Z,57.60
2018-04-02T07:48:29.815Z,55.80
2018-04-02T07:50:57.237Z,58.80
2018-04-02T07:53:24.662Z,55.60
2018-04-02T07:55:52.083Z,60.27
2018-04-02T07:58:20.290Z,57.80
2018-04-02T08:00:47.770Z,59.90
2018-04-02T08:03:15.202Z,60.07
2018-04-02T08:05:43.408Z,56.80
2018-04-02T08:08:11.617Z,58.27
2018-04-02T08:10:39.030Z,59.30
2018-04-02T08:13:06.461Z,59.47
2018-04-02T08:15:33.866Z,58.03
2018-04-02T08:18:01.298Z,60.37
2018-04-02T08:20:28.727Z,59.13
2018-04-02T08:22:56.947Z,58.10
2018-04-02T08:25:24.412Z,59.47
2018-04-02T08:27:51.774Z,57.23
2018-04-02T08:30:19.212Z,57.73
2018-04-02T08:32:46.654Z,58.23
2018-04-02T08:35:14.857Z,58.90
2018-04-02T08:37:42.283Z,58.73
2018-04-02T08:40:09.734Z,57.60
2018-04-02T08:42:37.170Z,59.47
2018-04-02T08:45:04.674Z,58.30
2018-04-02T08:47:32.209Z,58.33
2018-04-02T08:49:59.614Z,58.80
2018-04-02T08:52:27.042Z,58.80
2018-04-02T08:54:55.226Z,59.80
2018-04-02T08:57:23.427Z,62.13
2018-04-02T08:59:51.614Z,61.20
2018-04-02T09:02:19.798Z,63.77
2018-04-02T09:04:47.990Z,64.17
2018-04-02T09:07:16.187Z,68.03
2018-04-02T09:09:43.625Z,64.90
2018-04-02T09:12:11.046Z,66.27
2018-04-02T09:14:38.464Z,65.60
2018-04-02T09:17:06.658Z,66.43
2018-04-02T09:19:34.901Z,69.53
2018-04-02T09:22:02.318Z,66.07
2018-04-02T09:24:29.726Z,64.47
2018-04-02T09:26:57.145Z,62.90
2018-04-02T09:29:25.358Z,59.70
2018-04-02T09:31:52.774Z,61.80
2018-04-02T09:34:20.202Z,61.70
2018-04-02T09:36:47.635Z,62.10
2018-04-02T09:39:15.811Z,63.90
2018-04-02T09:41:43.257Z,65.37
2018-04-02T09:44:10.686Z,65.47
2018-04-02T09:46:38.182Z,67.60
2018-04-02T09:49:05.623Z,65.30
2018-04-02T09:51:33.058Z,66.20
2018-04-02T09:54:01.300Z,72.03
2018-04-02T09:56:28.810Z,81.23
2018-04-02T09:58:56.174Z,83.47
2018-04-02T10:01:29.474Z,95.20
2018-04-02T10:03:56.910Z,95.30
2018-04-02T10:06:24.341Z,97.97
2018-04-02T10:08:52.538Z,99.73
2018-04-02T10:11:19.968Z,99.90
2018-04-02T10:13:47.395Z,101.60
2018-04-02T10:16:14.816Z,101.40
2018-04-02T10:18:43.046Z,103.03
2018-04-02T10:21:11.333Z,104.32
2018-04-02T10:23:38.791Z,101.17
2018-04-02T10:26:06.240Z,104.10
2018-04-02T10:28:34.434Z,104.70
2018-04-02T10:31:01.965Z,102.50
2018-04-02T10:33:30.120Z,97.57
2018-04-02T10:35:57.550Z,97.17
2018-04-02T10:38:25.761Z,98.87
2018-04-02T10:40:53.182Z,90.03
2018-04-02T10:43:20.629Z,88.67
2018-04-02T10:45:48.024Z,98.00
2018-04-02T10:48:15.434Z,92.47
2018-04-02T10:50:42.875Z,83.20
2018-04-02T10:53:11.863Z,74.43
2018-04-02T10:55:39.313Z,77.10
2018-04-02T10:58:06.728Z,75.93
2018-04-02T11:00:34.152Z,72.50
2018-04-02T11:03:01.612Z,75.43
2018-04-02T11:08:12.218Z,65.57
2018-04-02T11:10:39.634Z,65.10
2018-04-02T11:13:07.068Z,68.50
2018-04-02T11:15:34.493Z,63.70
2018-04-02T11:18:01.941Z,68.10
2018-04-02T11:20:29.337Z,64.53
2018-04-02T11:22:56.763Z,60.27
2018-04-02T11:25:24.968Z,62.07
2018-04-02T11:27:53.150Z,64.40
2018-04-02T11:30:21.350Z,69.13
2018-04-02T11:32:48.781Z,68.73
2018-04-02T11:35:16.194Z,63.20
2018-04-02T11:37:43.642Z,65.43
2018-04-02T11:40:12.430Z,62.05
2018-04-02T11:42:41.554Z,58.20
2018-04-02T11:45:08.969Z,59.20
2018-04-02T11:47:36.401Z,57.03
2018-04-02T11:50:04.734Z,58.27
2018-04-02T11:52:32.150Z,57.80
2018-04-02T11:54:59.629Z,55.50
2018-04-02T11:57:27.033Z,57.83
2018-04-02T11:59:54.462Z,60.27
2018-04-02T12:02:21.878Z,55.87
2018-04-02T12:04:49.318Z,50.57
2018-04-02T12:07:16.771Z,53.00
2018-04-02T12:09:44.228Z,52.60
2018-04-02T12:12:12.239Z,52.40
2018-04-02T12:14:39.651Z,50.93
2018-04-02T12:17:07.082Z,49.20
2018-04-02T12:19:34.532Z,48.23
2018-04-02T12:22:01.966Z,47.20
2018-04-02T12:24:30.158Z,48.53
2018-04-02T12:26:58.335Z,43.03
2018-04-02T12:29:26.524Z,41.93
2018-04-02T12:31:53.939Z,37.53
2018-04-02T12:34:21.392Z,40.80
2018-04-02T12:36:48.837Z,39.10
2018-04-02T12:39:17.039Z,39.47
2018-04-02T12:41:44.463Z,40.00
2018-04-02T12:44:13.410Z,38.35
2018-04-02T12:46:40.842Z,39.40
2018-04-02T12:49:09.038Z,38.40
2018-04-02T12:51:37.259Z,40.30
2018-04-02T12:54:04.719Z,35.30
2018-04-02T12:56:32.907Z,36.50
2018-04-02T12:59:00.334Z,37.00
2018-04-02T13:01:27.806Z,34.47
2018-04-02T13:03:55.234Z,34.20
2018-04-02T13:06:22.670Z,35.17
2018-04-02T13:08:50.083Z,33.57
2018-04-02T13:11:17.523Z,31.23
2018-04-02T13:13:44.938Z,32.07
2018-04-02T13:16:13.890Z,32.03
2018-04-02T13:18:41.349Z,30.17
2018-04-02T13:21:08.797Z,32.43
2018-04-02T13:23:36.991Z,32.67
2018-04-02T13:26:05.210Z,31.13
2018-04-02T13:28:32.629Z,30.50
2018-04-02T13:31:00.877Z,30.27
2018-04-02T13:33:28.352Z,28.33
2018-04-02T13:35:56.508Z,29.00
2018-04-02T13:38:23.967Z,28.40
2018-04-02T13:40:51.429Z,28.20
2018-04-02T13:43:19.629Z,28.40
2018-04-02T13:45:47.064Z,30.27
2018-04-02T13:48:14.543Z,30.73
2018-04-02T13:50:41.961Z,30.07
2018-04-02T13:53:09.386Z,32.53
2018-04-02T13:55:37.599Z,32.33
2018-04-02T13:58:05.062Z,32.40
2018-04-02T14:00:32.506Z,31.20
2018-04-02T14:03:00.711Z,30.30
2018-04-02T14:05:28.142Z,29.57
2018-04-02T14:07:55.594Z,30.97
2018-04-02T14:10:23.019Z,25.63
2018-04-02T14:12:50.438Z,25.88
2018-04-02T14:15:17.882Z,28.00
2018-04-02T14:17:45.322Z,25.30
2018-04-02T14:20:12.795Z,27.20
2018-04-02T14:22:40.242Z,26.60
2018-04-02T14:25:08.439Z,24.97
2018-04-02T14:27:35.862Z,26.27
2018-04-02T14:30:03.290Z,25.33
2018-04-02T14:32:30.741Z,26.20
2018-04-02T14:34:58.203Z,25.63
2018-04-02T14:37:25.637Z,27.48
2018-04-02T14:39:53.077Z,24.90
2018-04-02T14:42:20.518Z,26.30
2018-04-02T14:44:47.941Z,26.40
2018-04-02T14:47:15.382Z,26.30
2018-04-02T14:49:42.828Z,27.77
2018-04-02T14:52:11.129Z,29.10
2018-04-02T14:54:38.530Z,27.90
2018-04-02T14:57:05.950Z,24.87
2018-04-02T14:59:33.358Z,28.23
2018-04-02T15:02:00.790Z,26.95
2018-04-02T15:04:28.258Z,28.80
2018-04-02T15:06:56.425Z,29.00
2018-04-02T15:09:24.602Z,34.03
2018-04-02T15:11:52.812Z,37.20
2018-04-02T15:14:21.007Z,52.63
2018-04-02T15:16:48.422Z,44.37
2018-04-02T15:19:16.774Z,36.93
2018-04-02T15:21:45.669Z,27.20
2018-04-02T15:24:13.118Z,26.70
2018-04-02T15:26:41.364Z,27.57
2018-04-02T15:29:10.363Z,27.10
2018-04-02T15:31:38.477Z,25.77
2018-04-02T15:34:06.721Z,27.10
2018-04-02T15:36:34.126Z,27.40
2018-04-02T15:39:02.351Z,26.17
2018-04-02T15:41:30.538Z,27.55
2018-04-02T15:43:58.006Z,26.13
2018-04-02T15:46:26.190Z,27.93
2018-04-02T15:48:53.613Z,26.80
2018-04-02T15:51:22.530Z,24.13
2018-04-02T15:53:50.722Z,23.90
2018-04-02T15:56:18.940Z,23.90
2018-04-02T15:58:46.355Z,22.83
2018-04-02T16:01:13.799Z,23.00
2018-04-02T16:03:41.254Z,22.70
2018-04-02T16:06:08.746Z,21.60
2018-04-02T16:08:36.166Z,23.53
2018-04-02T16:11:04.468Z,21.43
2018-04-02T16:13:32.659Z,20.90
2018-04-02T16:16:00.094Z,22.10
2018-04-02T16:18:27.522Z,21.60
2018-04-02T16:20:54.952Z,20.90
2018-04-02T16:23:23.139Z,22.20
2018-04-02T16:25:50.596Z,21.47
2018-04-02T16:28:18.793Z,23.43
2018-04-02T16:30:46.245Z,24.30
2018-04-02T16:33:13.676Z,23.33
2018-04-02T16:35:41.149Z,22.55
2018-04-02T16:38:08.854Z,22.10
2018-04-02T16:40:37.055Z,20.60
2018-04-02T16:43:04.510Z,22.13
2018-04-02T16:45:32.710Z,21.97
2018-04-02T16:48:00.181Z,20.70
2018-04-02T16:50:28.364Z,22.60
2018-04-02T16:52:55.793Z,21.10
2018-04-02T16:55:23.224Z,21.07
2018-04-02T16:57:50.642Z,21.03
2018-04-02T17:00:18.162Z,21.10
2018-04-02T17:02:47.155Z,20.70
2018-04-02T17:05:14.586Z,20.80
2018-04-02T17:07:42.008Z,21.40
2018-04-02T17:10:09.422Z,20.33
2018-04-02T17:12:36.875Z,21.70
2018-04-02T17:15:04.331Z,21.73
2018-04-02T17:17:31.732Z,22.23
2018-04-02T17:19:59.914Z,21.53
2018-04-02T17:22:27.434Z,21.97
2018-04-02T17:24:54.875Z,21.33
2018-04-02T17:27:23.054Z,21.37
2018-04-02T17:29:51.266Z,18.80
2018-04-02T17:32:18.676Z,20.67
2018-04-02T17:34:47.046Z,23.87
2018-04-02T17:37:14.458Z,27.30
2018-04-02T17:39:41.914Z,30.30
2018-04-02T17:42:10.130Z,31.07
2018-04-02T17:44:37.550Z,33.03
2018-04-02T17:47:04.974Z,33.83
2018-04-02T17:49:32.402Z,34.08
2018-04-02T17:51:59.958Z,34.00
2018-04-02T17:54:27.411Z,35.13
2018-04-02T17:56:54.846Z,36.00
2018-04-02T17:59:22.292Z,37.27
2018-04-02T18:01:49.706Z,37.30
2018-04-02T18:04:18.059Z,32.33
2018-04-02T18:06:47.180Z,30.67
2018-04-02T18:09:15.362Z,35.93
2018-04-02T18:11:43.575Z,36.63
2018-04-02T18:14:11.836Z,36.73
2018-04-02T18:16:39.257Z,34.67
2018-04-02T18:19:06.714Z,36.67
2018-04-02T18:21:34.147Z,37.35
2018-04-02T18:24:02.346Z,35.10
2018-04-02T18:26:29.790Z,37.43
2018-04-02T18:28:57.206Z,35.70
2018-04-02T18:31:24.610Z,38.27
2018-04-02T18:33:52.114Z,36.83
2018-04-02T18:36:19.537Z,38.40
2018-04-02T18:38:47.902Z,37.23
2018-04-02T18:41:15.371Z,34.50
2018-04-02T18:43:42.783Z,37.80
2018-04-02T18:46:10.990Z,37.60
2018-04-02T18:48:38.423Z,39.07
2018-04-02T18:51:05.840Z,37.60
2018-04-02T18:53:34.035Z,41.67
2018-04-02T18:56:02.137Z,39.88
2018-04-02T18:58:29.537Z,39.30
2018-04-02T19:00:56.981Z,36.65
2018-04-02T19:03:24.454Z,38.97
2018-04-02T19:05:51.826Z,36.80
2018-04-02T19:08:19.259Z,39.53
2018-04-02T19:10:46.683Z,37.90
2018-04-02T19:13:14.098Z,26.97
2018-04-02T19:15:41.527Z,36.60
2018-04-02T19:18:09.774Z,38.03
2018-04-02T19:20:37.194Z,35.03
2018-04-02T19:23:04.614Z,39.87
2018-04-02T19:25:32.042Z,36.60
2018-04-02T19:27:59.460Z,41.23
2018-04-02T19:30:26.882Z,41.60
2018-04-02T19:32:54.369Z,37.77
2018-04-02T19:35:21.818Z,39.20
2018-04-02T19:37:49.980Z,40.47
2018-04-02T19:40:19.119Z,40.37
2018-04-02T19:42:46.530Z,39.60
2018-04-02T19:45:14.714Z,38.43
2018-04-02T19:47:42.154Z,39.10
2018-04-02T19:50:09.584Z,40.80
2018-04-02T19:52:37.857Z,42.63
2018-04-02T19:55:06.062Z,41.50
2018-04-02T19:57:33.494Z,42.57
2018-04-02T20:00:00.906Z,42.80
2018-04-02T20:02:28.334Z,43.80
2018-04-02T20:04:55.756Z,43.08
2018-04-02T20:07:23.162Z,41.60
2018-04-02T20:09:50.578Z,44.87
2018-04-02T20:12:18.010Z,43.40
2018-04-02T20:14:45.421Z,43.70
2018-04-02T20:17:12.893Z,42.87
2018-04-02T20:19:40.365Z,36.60
2018-04-02T20:22:07.794Z,39.13
2018-04-02T20:24:35.218Z,38.38
2018-04-02T20:27:02.641Z,38.90
2018-04-02T20:29:30.837Z,36.70
2018-04-02T20:31:59.010Z,37.33
2018-04-02T20:34:27.334Z,37.83
2018-04-02T20:36:54.744Z,33.80
2018-04-02T20:39:22.321Z,34.30
2018-04-02T20:41:49.735Z,32.70
2018-04-02T20:44:17.145Z,32.60
2018-04-02T20:46:44.574Z,31.10
2018-04-02T20:49:12.041Z,32.67
2018-04-02T20:51:39.497Z,33.37
2018-04-02T20:54:06.925Z,33.90
2018-04-02T20:56:34.330Z,33.37
2018-04-02T20:59:01.780Z,31.60
2018-04-02T21:01:29.963Z,33.10
2018-04-02T21:03:58.304Z,34.80
2018-04-02T21:06:25.712Z,34.28
2018-04-02T21:08:53.144Z,33.73
2018-04-02T21:11:20.565Z,34.97
2018-04-02T21:13:48.747Z,34.40
2018-04-02T21:16:16.934Z,32.00
2018-04-02T21:18:45.143Z,31.93
2018-04-02T21:21:12.589Z,30.70
2018-04-02T21:23:40.773Z,24.70
2018-04-02T21:26:08.218Z,24.98
2018-04-02T21:28:35.643Z,21.47
2018-04-02T21:31:03.060Z,17.40
2018-04-02T21:33:30.475Z,17.33
2018-04-02T21:35:57.911Z,15.90
2018-04-02T21:38:26.110Z,14.03
2018-04-02T21:40:54.308Z,14.63
2018-04-02T21:43:22.529Z,14.70
2018-04-02T21:45:51.407Z,14.65
2018-04-02T21:48:18.844Z,13.87
2018-04-02T21:50:46.260Z,13.70
2018-04-02T21:53:13.733Z,14.20
2018-04-02T21:55:41.186Z,14.17
2018-04-02T21:58:08.645Z,15.13
2018-04-02T22:00:36.804Z,14.50
2018-04-02T22:03:04.243Z,14.70
2018-04-02T22:05:31.666Z,13.60
2018-04-02T22:08:09.114Z,13.63
2018-04-02T22:10:36.554Z,13.07
2018-04-02T22:13:03.989Z,13.10
2018-04-02T22:15:32.174Z,12.70
2018-04-02T22:18:00.362Z,11.90
2018-04-02T22:20:28.560Z,11.00
2018-04-02T22:22:56.790Z,12.07
2018-04-02T22:25:24.247Z,10.30
2018-04-02T22:27:51.654Z,10.70
2018-04-02T22:30:19.854Z,10.00
2018-04-02T22:32:48.056Z,9.33
2018-04-02T22:35:16.230Z,10.10
2018-04-02T22:37:44.428Z,9.37
2018-04-02T22:40:12.628Z,8.77
2018-04-02T22:42:40.058Z,8.83
2018-04-02T22:45:08.241Z,9.00
2018-04-02T22:47:35.674Z,8.63
2018-04-02T22:50:03.092Z,8.60
2018-04-02T22:52:31.296Z,9.10
2018-04-02T22:54:58.733Z,7.80
2018-04-02T22:57:26.151Z,8.60
2018-04-02T22:59:53.575Z,8.67
2018-04-02T23:02:22.599Z,8.40
2018-04-02T23:04:51.701Z,8.60
2018-04-02T23:07:19.878Z,8.33
2018-04-02T23:09:48.070Z,8.30
2018-04-02T23:12:16.268Z,9.00
2018-04-02T23:14:44.490Z,8.83
2018-04-02T23:17:11.925Z,7.90
2018-04-02T23:19:39.410Z,8.63
2018-04-02T23:22:06.830Z,7.80
2018-04-02T23:24:34.246Z,8.57
2018-04-02T23:27:01.658Z,8.33
2018-04-02T23:29:29.094Z,8.27
2018-04-02T23:31:56.544Z,8.33
2018-04-02T23:34:23.947Z,7.43
2018-04-02T23:36:53.061Z,8.33
2018-04-02T23:39:20.479Z,8.00
2018-04-02T23:41:47.909Z,8.27
2018-04-02T23:44:16.085Z,7.50
2018-04-02T23:46:43.513Z,7.33
2018-04-02T23:49:10.920Z,7.17
2018-04-02T23:51:38.353Z,6.10
2018-04-02T23:54:05.778Z,5.90
2018-04-02T23:56:33.211Z,6.30
2018-04-02T23:59:00.627Z,5.80
